createdAt,value
2022-10-10T00:01:24.954Z,8.50
2022-10-10T00:03:52.371Z,8.50
2022-10-10T00:06:20.803Z,8.40
2022-10-10T00:08:48.096Z,8.40
2022-10-10T00:11:17.809Z,8.50
2022-10-10T00:13:44.856Z,8.50
2022-10-10T00:16:12.261Z,8.40
2022-10-10T00:18:40.318Z,8.40
2022-10-10T00:21:08.487Z,8.50
2022-10-10T00:23:35.945Z,8.60
2022-10-10T00:26:08.360Z,8.50
2022-10-10T00:28:38.669Z,8.40
2022-10-10T00:31:08.531Z,8.50
2022-10-10T00:33:36.086Z,8.60
2022-10-10T00:36:03.345Z,8.70
2022-10-10T00:38:30.186Z,8.70
2022-10-10T00:40:57.054Z,8.70
2022-10-10T00:43:26.016Z,8.60
2022-10-10T00:45:53.516Z,8.60
2022-10-10T00:48:24.628Z,8.60
2022-10-10T00:50:59.451Z,8.60
2022-10-10T00:53:31.212Z,8.40
2022-10-10T00:55:59.663Z,8.40
2022-10-10T00:58:26.601Z,8.30
2022-10-10T01:00:53.874Z,8.20
2022-10-10T01:03:21.231Z,8.00
2022-10-10T01:05:50.076Z,7.90
2022-10-10T01:08:18.616Z,7.90
2022-10-10T01:11:11.092Z,8.00
2022-10-10T01:13:56.376Z,8.20
2022-10-10T01:16:38.060Z,8.30
2022-10-10T01:19:25.098Z,8.40
2022-10-10T01:22:18.547Z,8.40
2022-10-10T01:24:56.862Z,8.40
2022-10-10T01:27:41.614Z,8.40
2022-10-10T01:30:17.674Z,8.30
2022-10-10T01:33:08.617Z,8.40
2022-10-10T01:35:55.601Z,8.40
2022-10-10T01:38:27.862Z,8.40
2022-10-10T01:41:06.048Z,8.40
2022-10-10T01:43:33.926Z,8.40
2022-10-10T01:46:09.072Z,8.50
2022-10-10T01:48:35.907Z,8.40
2022-10-10T01:51:21.127Z,8.50
2022-10-10T01:54:09.025Z,8.60
2022-10-10T01:56:57.437Z,8.60
2022-10-10T01:59:32.513Z,8.60
2022-10-10T02:02:06.052Z,8.60
2022-10-10T02:04:45.862Z,8.50
2022-10-10T02:07:23.018Z,8.50
2022-10-10T02:09:52.866Z,8.40
2022-10-10T02:12:21.106Z,8.50
2022-10-10T02:14:51.712Z,8.60
2022-10-10T02:17:18.768Z,8.60
2022-10-10T02:19:53.672Z,8.60
2022-10-10T02:22:22.904Z,8.60
2022-10-10T02:24:51.772Z,8.60
2022-10-10T02:27:21.864Z,8.70
2022-10-10T02:29:51.108Z,8.70
2022-10-10T02:32:46.994Z,8.60
2022-10-10T02:35:18.140Z,8.50
2022-10-10T02:37:46.408Z,8.50
2022-10-10T02:40:17.883Z,8.50
2022-10-10T02:42:45.628Z,8.50
2022-10-10T02:45:13.259Z,8.50
2022-10-10T02:47:40.028Z,8.50
2022-10-10T02:50:07.259Z,8.60
2022-10-10T02:52:34.186Z,8.70
2022-10-10T02:55:01.129Z,8.70
2022-10-10T02:57:28.055Z,8.70
2022-10-10T02:59:54.812Z,8.70
2022-10-10T03:02:21.793Z,8.70
2022-10-10T03:04:48.610Z,8.70
2022-10-10T03:07:15.572Z,8.70
2022-10-10T03:09:42.364Z,8.80
2022-10-10T03:12:09.209Z,8.80
2022-10-10T03:14:36.202Z,8.80
2022-10-10T03:17:03.155Z,8.80
2022-10-10T03:19:29.942Z,8.80
2022-10-10T03:21:56.717Z,8.80
2022-10-10T03:24:23.480Z,8.70
2022-10-10T03:26:50.362Z,8.80
2022-10-10T03:29:17.733Z,8.80
2022-10-10T03:31:44.579Z,8.80
2022-10-10T03:34:11.407Z,8.70
2022-10-10T03:36:38.233Z,8.70
2022-10-10T03:39:05.242Z,8.60
2022-10-10T03:41:32.133Z,8.60
2022-10-10T03:43:59.034Z,8.60
2022-10-10T03:46:25.933Z,8.70
2022-10-10T03:48:52.736Z,8.70
2022-10-10T03:51:19.690Z,8.70
2022-10-10T03:53:46.564Z,8.80
2022-10-10T03:56:13.380Z,8.90
2022-10-10T03:58:40.204Z,9.00
2022-10-10T04:01:07.963Z,8.90
2022-10-10T04:03:34.780Z,8.90
2022-10-10T04:06:01.546Z,8.90
2022-10-10T04:08:29.956Z,9.00
2022-10-10T04:10:56.998Z,9.00
2022-10-10T04:13:25.688Z,9.10
2022-10-10T04:15:54.012Z,9.10
2022-10-10T04:18:21.169Z,9.10
2022-10-10T04:20:48.032Z,9.10
2022-10-10T04:23:14.946Z,9.10
2022-10-10T04:25:42.097Z,9.10
2022-10-10T04:28:12.673Z,9.00
2022-10-10T04:30:39.590Z,9.00
2022-10-10T04:33:06.474Z,9.00
2022-10-10T04:35:33.301Z,9.00
2022-10-10T04:38:00.132Z,9.00
2022-10-10T04:40:27.227Z,9.00
2022-10-10T04:42:55.338Z,9.00
2022-10-10T04:45:26.570Z,9.00
2022-10-10T04:47:56.820Z,9.00
2022-10-10T04:50:23.899Z,9.00
2022-10-10T04:52:51.075Z,9.00
2022-10-10T04:55:18.348Z,9.00
2022-10-10T04:57:46.413Z,9.10
2022-10-10T05:00:13.515Z,9.00
2022-10-10T05:02:40.294Z,9.00
2022-10-10T05:05:07.647Z,9.00
2022-10-10T05:07:34.408Z,9.00
2022-10-10T05:10:01.379Z,9.00
2022-10-10T05:12:28.244Z,9.00
2022-10-10T05:14:55.112Z,9.00
2022-10-10T05:17:21.905Z,9.00
2022-10-10T05:19:48.740Z,9.00
2022-10-10T05:22:15.851Z,9.10
2022-10-10T05:24:42.744Z,9.10
2022-10-10T05:27:09.575Z,9.10
2022-10-10T05:29:36.483Z,9.10
2022-10-10T05:32:10.143Z,9.20
2022-10-10T05:34:37.881Z,9.20
2022-10-10T05:37:04.826Z,9.20
2022-10-10T05:39:31.704Z,9.30
2022-10-10T05:41:58.634Z,9.30
2022-10-10T05:44:25.685Z,9.30
2022-10-10T05:46:52.742Z,9.30
2022-10-10T05:49:19.991Z,9.30
2022-10-10T05:51:47.533Z,9.30
2022-10-10T05:54:14.405Z,9.30
2022-10-10T05:56:42.049Z,9.40
2022-10-10T05:59:08.887Z,9.30
2022-10-10T06:01:36.640Z,9.30
2022-10-10T06:04:03.571Z,9.40
2022-10-10T06:06:30.398Z,9.40
2022-10-10T06:08:57.304Z,9.40
2022-10-10T06:11:25.964Z,9.30
2022-10-10T06:13:54.492Z,9.30
2022-10-10T06:16:22.916Z,9.40
2022-10-10T06:18:50.292Z,9.50
2022-10-10T06:21:18.438Z,9.40
2022-10-10T06:23:45.962Z,9.40
2022-10-10T06:26:13.204Z,9.40
2022-10-10T06:28:40.176Z,9.50
2022-10-10T06:31:08.973Z,9.60
2022-10-10T06:33:37.467Z,9.60
2022-10-10T06:36:06.900Z,9.70
2022-10-10T06:38:41.215Z,9.80
2022-10-10T06:41:08.874Z,9.80
2022-10-10T06:43:36.157Z,9.90
2022-10-10T06:46:03.433Z,9.90
2022-10-10T06:48:31.401Z,9.90
2022-10-10T06:51:10.896Z,10.00
2022-10-10T06:53:37.805Z,10.00
2022-10-10T06:56:04.964Z,10.10
2022-10-10T06:58:31.961Z,10.10
2022-10-10T07:01:01.405Z,10.20
2022-10-10T07:03:29.952Z,10.20
2022-10-10T07:05:59.998Z,10.30
2022-10-10T07:08:27.662Z,10.30
2022-10-10T07:10:57.443Z,10.40
2022-10-10T07:13:24.272Z,10.50
2022-10-10T07:15:51.059Z,10.60
2022-10-10T07:18:19.168Z,10.60
2022-10-10T07:20:46.012Z,10.70
2022-10-10T07:23:13.383Z,10.80
2022-10-10T07:25:41.476Z,10.80
2022-10-10T07:28:09.732Z,10.90
2022-10-10T07:30:41.740Z,11.00
2022-10-10T07:33:08.822Z,11.10
2022-10-10T07:35:35.884Z,11.20
2022-10-10T07:38:03.430Z,11.20
2022-10-10T07:40:30.993Z,11.10
2022-10-10T07:42:57.965Z,11.20
2022-10-10T07:45:25.540Z,11.30
2022-10-10T07:47:53.597Z,11.40
2022-10-10T07:50:20.888Z,11.50
2022-10-10T07:52:47.836Z,11.50
2022-10-10T07:55:14.830Z,11.60
2022-10-10T07:57:41.790Z,11.70
2022-10-10T08:00:10.723Z,11.80
2022-10-10T08:02:37.777Z,11.90
2022-10-10T08:05:05.189Z,11.90
2022-10-10T08:07:32.308Z,11.80
2022-10-10T08:09:59.862Z,11.90
2022-10-10T08:12:26.874Z,11.90
2022-10-10T08:14:54.279Z,12.00
2022-10-10T08:17:21.391Z,12.10
2022-10-10T08:19:48.332Z,12.30
2022-10-10T08:22:15.483Z,12.20
2022-10-10T08:24:42.540Z,12.30
2022-10-10T08:27:10.022Z,12.30
2022-10-10T08:29:37.308Z,12.30
2022-10-10T08:32:04.095Z,12.40
2022-10-10T08:34:30.946Z,12.50
2022-10-10T08:36:57.872Z,12.50
2022-10-10T08:39:24.844Z,12.60
2022-10-10T08:42:01.185Z,12.80
2022-10-10T08:44:40.554Z,12.80
2022-10-10T08:47:10.504Z,12.70
2022-10-10T08:49:43.455Z,12.80
2022-10-10T08:52:25.267Z,12.90
2022-10-10T08:54:58.183Z,13.00
2022-10-10T08:57:33.842Z,13.00
2022-10-10T09:00:05.902Z,13.10
2022-10-10T09:02:53.596Z,13.10
2022-10-10T09:05:30.832Z,13.10
2022-10-10T09:08:09.734Z,13.00
2022-10-10T09:10:50.024Z,13.10
2022-10-10T09:13:32.635Z,13.20
2022-10-10T09:16:06.198Z,13.40
2022-10-10T09:18:59.555Z,13.70
2022-10-10T09:21:34.502Z,13.70
2022-10-10T09:24:22.169Z,13.90
2022-10-10T09:26:58.043Z,13.80
2022-10-10T09:29:32.585Z,13.90
2022-10-10T09:32:10.720Z,13.90
2022-10-10T09:34:46.188Z,13.80
2022-10-10T09:37:35.257Z,13.80
2022-10-10T09:40:22.957Z,14.00
2022-10-10T09:42:50.375Z,13.90
2022-10-10T09:45:28.951Z,13.90
2022-10-10T09:47:58.956Z,13.90
2022-10-10T09:50:25.879Z,13.80
2022-10-10T09:52:53.381Z,13.90
2022-10-10T09:55:34.391Z,14.00
2022-10-10T09:58:28.613Z,14.00
2022-10-10T10:01:14.106Z,14.10
2022-10-10T10:03:41.411Z,14.30
2022-10-10T10:14:36.652Z,14.50
2022-10-10T10:17:09.872Z,14.60
2022-10-10T10:19:42.109Z,14.50
2022-10-10T10:22:33.008Z,14.90
2022-10-10T10:25:20.902Z,15.20
2022-10-10T10:30:26.733Z,14.80
2022-10-10T10:33:14.860Z,14.70
2022-10-10T10:35:56.175Z,14.90
2022-10-10T10:38:48.235Z,15.30
2022-10-10T10:41:45.968Z,15.40
2022-10-10T11:05:22.473Z,15.80
2022-10-10T11:06:23.817Z,16.00
2022-10-10T11:47:12.292Z,16.80
2022-10-10T11:52:35.174Z,17.00
2022-10-10T12:25:06.837Z,16.90
2022-10-10T12:30:14.827Z,17.50
2022-10-10T12:35:22.943Z,17.40
2022-10-10T12:40:33.087Z,17.30
2022-10-10T13:13:11.397Z,17.90
2022-10-10T13:15:39.869Z,18.10
2022-10-10T13:18:07.552Z,18.30
2022-10-10T13:20:38.828Z,18.00
2022-10-10T13:25:53.269Z,18.10
2022-10-10T13:41:54.217Z,18.30
2022-10-10T13:52:24.134Z,18.30
2022-10-10T13:54:52.232Z,18.30
2022-10-10T14:00:08.191Z,17.90
2022-10-10T14:02:37.368Z,17.90
2022-10-10T14:05:09.658Z,18.00
2022-10-10T14:07:37.326Z,17.70
2022-10-10T14:10:11.274Z,17.40
2022-10-10T14:15:38.387Z,17.60
2022-10-10T14:20:42.924Z,17.40
2022-10-10T14:25:51.319Z,17.10
2022-10-10T14:28:22.965Z,17.20
2022-10-10T14:30:50.962Z,17.00
2022-10-10T14:33:20.483Z,16.90
2022-10-10T14:35:50.169Z,17.10
2022-10-10T14:38:17.452Z,16.90
2022-10-10T14:40:47.227Z,16.80
2022-10-10T14:45:51.128Z,16.70
2022-10-10T14:48:20.749Z,16.70
2022-10-10T14:51:00.946Z,16.70
2022-10-10T14:54:10.879Z,16.60
2022-10-10T14:57:09.326Z,16.60
2022-10-10T14:59:49.710Z,16.60
2022-10-10T15:05:06.494Z,16.40
2022-10-10T15:07:36.318Z,16.30
2022-10-10T15:10:32.850Z,16.20
2022-10-10T15:12:53.236Z,16.20
2022-10-10T15:15:21.320Z,16.20
2022-10-10T15:17:50.408Z,16.20
2022-10-10T15:20:18.386Z,16.10
2022-10-10T15:22:47.255Z,16.00
2022-10-10T15:25:14.627Z,15.80
2022-10-10T15:27:43.621Z,15.70
2022-10-10T15:30:12.663Z,15.60
2022-10-10T15:32:46.413Z,15.60
2022-10-10T15:35:16.895Z,15.50
2022-10-10T15:37:45.364Z,15.50
2022-10-10T15:42:40.687Z,15.30
2022-10-10T15:45:09.102Z,15.20
2022-10-10T15:47:46.236Z,14.90
2022-10-10T15:50:14.413Z,14.80
2022-10-10T15:52:42.140Z,14.70
2022-10-10T15:55:10.019Z,14.60
2022-10-10T15:57:37.804Z,14.60
2022-10-10T16:00:06.180Z,14.50
2022-10-10T16:02:33.977Z,14.40
2022-10-10T16:05:01.899Z,14.30
2022-10-10T16:07:31.401Z,14.10
2022-10-10T16:10:02.235Z,13.90
2022-10-10T16:12:29.318Z,13.50
2022-10-10T16:14:56.911Z,13.20
2022-10-10T16:17:24.420Z,13.20
2022-10-10T16:19:51.900Z,13.00
2022-10-10T16:22:20.856Z,12.90
2022-10-10T16:25:10.284Z,13.00
2022-10-10T16:27:37.077Z,12.90
2022-10-10T16:30:04.954Z,12.60
2022-10-10T16:32:32.599Z,12.30
2022-10-10T16:34:59.389Z,12.00
2022-10-10T16:37:26.168Z,12.10
2022-10-10T16:39:52.966Z,12.30
2022-10-10T16:42:19.888Z,12.20
2022-10-10T16:44:46.786Z,12.20
2022-10-10T16:47:13.628Z,12.20
2022-10-10T16:49:41.106Z,12.00
2022-10-10T16:52:07.910Z,12.20
2022-10-10T16:54:35.253Z,12.30
2022-10-10T16:57:02.316Z,12.10
2022-10-10T16:59:29.246Z,11.90
2022-10-10T17:01:56.000Z,11.90
2022-10-10T17:04:22.772Z,11.90
2022-10-10T17:06:49.500Z,11.90
2022-10-10T17:09:17.266Z,11.80
2022-10-10T17:11:49.209Z,11.80
2022-10-10T17:14:18.017Z,11.90
2022-10-10T17:17:11.546Z,11.90
2022-10-10T17:19:32.677Z,11.90
2022-10-10T17:21:59.664Z,11.80
2022-10-10T17:24:26.635Z,11.70
2022-10-10T17:26:53.437Z,11.80
2022-10-10T17:29:20.200Z,11.90
2022-10-10T17:31:46.982Z,11.90
2022-10-10T17:34:13.747Z,11.90
2022-10-10T17:36:40.493Z,12.00
2022-10-10T17:39:07.837Z,12.00
2022-10-10T17:41:34.849Z,11.90
2022-10-10T17:44:01.927Z,12.00
2022-10-10T17:46:36.418Z,11.60
2022-10-10T17:49:08.696Z,11.50
2022-10-10T17:51:36.917Z,11.50
2022-10-10T17:54:04.623Z,11.50
2022-10-10T17:56:35.037Z,11.50
2022-10-10T17:59:05.491Z,11.50
2022-10-10T18:01:33.250Z,11.60
2022-10-10T18:04:00.629Z,11.50
2022-10-10T18:06:29.188Z,11.60
2022-10-10T18:08:56.948Z,11.40
2022-10-10T18:11:29.296Z,11.30
2022-10-10T18:14:02.750Z,11.00
2022-10-10T18:16:35.347Z,11.10
2022-10-10T18:19:05.096Z,11.20
2022-10-10T18:21:32.352Z,11.40
2022-10-10T18:24:00.674Z,11.40
2022-10-10T18:26:32.121Z,11.30
2022-10-10T18:28:59.281Z,11.40
2022-10-10T18:31:29.480Z,11.20
2022-10-10T18:33:56.753Z,11.20
2022-10-10T18:36:26.251Z,11.30
2022-10-10T18:38:53.177Z,11.20
2022-10-10T18:41:22.331Z,11.00
2022-10-10T18:43:50.369Z,11.10
2022-10-10T18:46:19.838Z,11.20
2022-10-10T18:48:51.352Z,11.30
2022-10-10T18:51:26.378Z,11.30
2022-10-10T18:53:57.089Z,11.40
2022-10-10T18:56:26.786Z,11.40
2022-10-10T18:58:57.335Z,11.40
2022-10-10T19:01:26.450Z,11.30
2022-10-10T19:03:54.824Z,11.40
2022-10-10T19:06:23.771Z,11.30
2022-10-10T19:09:01.481Z,11.10
2022-10-10T19:11:34.318Z,11.20
2022-10-10T19:14:04.120Z,11.30
2022-10-10T19:16:31.353Z,11.30
2022-10-10T19:18:59.842Z,11.30
2022-10-10T19:21:31.624Z,11.40
2022-10-10T19:23:59.909Z,11.40
2022-10-10T19:26:27.379Z,11.40
2022-10-10T19:28:54.215Z,11.20
2022-10-10T19:31:21.322Z,11.10
2022-10-10T19:33:52.284Z,11.10
2022-10-10T19:36:19.386Z,11.20
2022-10-10T19:38:46.654Z,11.20
2022-10-10T19:41:14.415Z,11.10
2022-10-10T19:43:42.680Z,11.00
2022-10-10T19:46:13.337Z,10.90
2022-10-10T19:48:40.398Z,11.00
2022-10-10T19:51:12.860Z,11.00
2022-10-10T19:53:40.461Z,10.90
2022-10-10T19:56:13.277Z,11.00
2022-10-10T19:58:40.214Z,10.90
2022-10-10T20:01:12.580Z,10.90
2022-10-10T20:03:39.931Z,10.90
2022-10-10T20:06:07.744Z,10.90
2022-10-10T20:08:34.882Z,10.90
2022-10-10T20:11:02.226Z,11.00
2022-10-10T20:13:29.386Z,11.00
2022-10-10T20:16:00.190Z,10.80
2022-10-10T20:18:27.509Z,10.70
2022-10-10T20:20:54.346Z,10.80
2022-10-10T20:23:23.432Z,10.70
2022-10-10T20:25:50.482Z,10.60
2022-10-10T20:28:18.898Z,10.60
2022-10-10T20:30:49.442Z,10.70
2022-10-10T20:33:18.198Z,10.60
2022-10-10T20:35:46.914Z,10.20
2022-10-10T20:38:15.069Z,10.20
2022-10-10T20:40:43.537Z,10.10
2022-10-10T20:43:12.162Z,10.00
2022-10-10T20:45:40.518Z,10.00
2022-10-10T20:48:08.206Z,10.10
2022-10-10T20:50:39.061Z,10.20
2022-10-10T20:53:06.788Z,10.30
2022-10-10T20:55:33.986Z,10.20
2022-10-10T20:58:00.962Z,10.10
2022-10-10T21:00:27.766Z,10.10
2022-10-10T21:02:56.370Z,10.20
2022-10-10T21:05:23.479Z,10.00
2022-10-10T21:07:50.387Z,10.00
2022-10-10T21:10:17.305Z,10.00
2022-10-10T21:12:44.144Z,10.00
2022-10-10T21:15:11.073Z,10.00
2022-10-10T21:17:37.946Z,9.80
2022-10-10T21:20:05.708Z,9.70
2022-10-10T21:22:32.652Z,9.60
2022-10-10T21:24:59.520Z,9.60
2022-10-10T21:27:26.505Z,9.70
2022-10-10T21:29:53.269Z,9.70
2022-10-10T21:32:20.054Z,9.70
2022-10-10T21:34:46.832Z,9.90
2022-10-10T21:37:13.604Z,10.00
2022-10-10T21:39:40.410Z,10.10
2022-10-10T21:42:07.345Z,9.90
2022-10-10T21:44:34.239Z,9.70
2022-10-10T21:47:00.978Z,9.60
2022-10-10T21:49:27.750Z,9.80
2022-10-10T21:51:54.585Z,9.80
2022-10-10T21:54:21.375Z,9.80
2022-10-10T21:56:48.101Z,9.90
2022-10-10T21:59:15.050Z,9.80
2022-10-10T22:01:42.654Z,9.50
2022-10-10T22:04:10.077Z,9.30
2022-10-10T22:06:36.937Z,9.50
2022-10-10T22:09:04.483Z,9.40
2022-10-10T22:11:32.608Z,9.20
2022-10-10T22:14:02.294Z,9.30
2022-10-10T22:16:29.629Z,9.50
2022-10-10T22:18:57.490Z,9.60
2022-10-10T22:21:30.361Z,9.60
2022-10-10T22:24:02.888Z,9.60
2022-10-10T22:26:30.745Z,9.50
2022-10-10T22:28:57.802Z,9.50
2022-10-10T22:31:24.675Z,9.60
2022-10-10T22:33:51.522Z,9.70
2022-10-10T22:36:18.522Z,9.80
2022-10-10T22:38:45.968Z,9.80
2022-10-10T22:41:13.856Z,9.80
2022-10-10T22:43:40.626Z,9.90
2022-10-10T22:46:08.167Z,9.80
2022-10-10T22:48:35.416Z,9.70
2022-10-10T22:51:06.564Z,9.70
2022-10-10T22:53:33.414Z,9.70
2022-10-10T22:56:00.589Z,9.80
2022-10-10T22:58:27.650Z,9.60
2022-10-10T23:00:54.583Z,9.60
2022-10-10T23:03:21.532Z,9.60
2022-10-10T23:05:48.316Z,9.60
2022-10-10T23:08:15.180Z,9.60
2022-10-10T23:10:42.190Z,9.60
2022-10-10T23:13:08.944Z,9.50
2022-10-10T23:15:35.802Z,9.60
2022-10-10T23:18:02.619Z,9.60
2022-10-10T23:20:29.418Z,9.40
2022-10-10T23:22:56.786Z,9.40
2022-10-10T23:25:24.269Z,9.30
2022-10-10T23:27:51.196Z,9.20
2022-10-10T23:30:18.136Z,9.40
2022-10-10T23:32:45.393Z,9.50
2022-10-10T23:35:13.671Z,9.50
2022-10-10T23:37:41.683Z,9.50
2022-10-10T23:40:08.888Z,9.60
2022-10-10T23:42:35.789Z,9.50
2022-10-10T23:45:02.551Z,9.60
2022-10-10T23:47:29.523Z,9.70
2022-10-10T23:49:56.316Z,9.70
2022-10-10T23:52:23.090Z,9.70
2022-10-10T23:54:49.879Z,9.60
2022-10-10T23:57:16.765Z,9.60
2022-10-10T23:59:44.028Z,9.40
